sensor_id;sensor_type;location;lat;lon;timestamp;pressure;altitude;pressure_sealevel;temperature;humidity
64253;BME280;50592;52.958;-7.470;2023-05-21T00:02:10;101413.66;;;14.94;100.00
64253;BME280;50592;52.958;-7.470;2023-05-21T00:04:46;101405.38;;;14.97;100.00
64253;BME280;50592;52.958;-7.470;2023-05-21T00:07:13;101408.56;;;15.01;100.00
64253;BME280;50592;52.958;-7.470;2023-05-21T00:09:42;101400.84;;;15.08;100.00
64253;BME280;50592;52.958;-7.470;2023-05-21T00:12:10;101399.53;;;15.12;100.00
64253;BME280;50592;52.958;-7.470;2023-05-21T00:14:38;101398.09;;;15.18;100.00
64253;BME280;50592;52.958;-7.470;2023-05-21T00:17:05;101383.78;;;15.19;100.00
64253;BME280;50592;52.958;-7.470;2023-05-21T00:19:34;101385.00;;;15.24;100.00
64253;BME280;50592;52.958;-7.470;2023-05-21T00:22:01;101388.66;;;15.23;100.00
64253;BME280;50592;52.958;-7.470;2023-05-21T00:24:30;101389.34;;;15.25;100.00
64253;BME280;50592;52.958;-7.470;2023-05-21T00:26:57;101381.38;;;15.25;100.00
64253;BME280;50592;52.958;-7.470;2023-05-21T00:29:26;101381.56;;;15.32;100.00
64253;BME280;50592;52.958;-7.470;2023-05-21T00:31:55;101376.25;;;15.32;100.00
64253;BME280;50592;52.958;-7.470;2023-05-21T00:34:24;101378.59;;;15.35;100.00
64253;BME280;50592;52.958;-7.470;2023-05-21T00:36:52;101384.63;;;15.37;100.00
64253;BME280;50592;52.958;-7.470;2023-05-21T00:39:22;101378.28;;;15.38;100.00
64253;BME280;50592;52.958;-7.470;2023-05-21T00:41:49;101381.97;;;15.37;100.00
64253;BME280;50592;52.958;-7.470;2023-05-21T00:44:18;101380.81;;;15.40;100.00
64253;BME280;50592;52.958;-7.470;2023-05-21T00:46:46;101382.66;;;15.40;100.00
64253;BME280;50592;52.958;-7.470;2023-05-21T00:49:16;101378.13;;;15.40;100.00
64253;BME280;50592;52.958;-7.470;2023-05-21T00:51:46;101379.22;;;15.29;100.00
64253;BME280;50592;52.958;-7.470;2023-05-21T00:54:14;101378.94;;;15.14;100.00
64253;BME280;50592;52.958;-7.470;2023-05-21T00:56:43;101377.38;;;15.11;100.00
64253;BME280;50592;52.958;-7.470;2023-05-21T00:59:10;101379.13;;;15.03;100.00
64253;BME280;50592;52.958;-7.470;2023-05-21T01:01:38;101384.47;;;15.03;100.00
64253;BME280;50592;52.958;-7.470;2023-05-21T01:04:06;101382.09;;;14.99;100.00
64253;BME280;50592;52.958;-7.470;2023-05-21T01:06:34;101390.78;;;15.02;100.00
64253;BME280;50592;52.958;-7.470;2023-05-21T01:09:02;101392.06;;;14.97;100.00
64253;BME280;50592;52.958;-7.470;2023-05-21T01:11:44;101379.91;;;14.95;100.00
64253;BME280;50592;52.958;-7.470;2023-05-21T01:14:14;101381.75;;;14.84;100.00
64253;BME280;50592;52.958;-7.470;2023-05-21T01:16:44;101380.81;;;14.85;100.00
64253;BME280;50592;52.958;-7.470;2023-05-21T01:19:15;101377.84;;;14.88;100.00
64253;BME280;50592;52.958;-7.470;2023-05-21T01:21:56;101366.88;;;14.92;100.00
64253;BME280;50592;52.958;-7.470;2023-05-21T01:24:26;101362.72;;;14.89;100.00
64253;BME280;50592;52.958;-7.470;2023-05-21T01:26:54;101359.59;;;14.94;100.00
64253;BME280;50592;52.958;-7.470;2023-05-21T01:29:22;101361.25;;;14.95;100.00
64253;BME280;50592;52.958;-7.470;2023-05-21T01:34:55;101347.44;;;15.09;100.00
64253;BME280;50592;52.958;-7.470;2023-05-21T01:37:57;101350.59;;;15.13;100.00
64253;BME280;50592;52.958;-7.470;2023-05-21T01:40:35;101350.19;;;15.18;100.00
64253;BME280;50592;52.958;-7.470;2023-05-21T01:43:08;101349.03;;;15.20;100.00
64253;BME280;50592;52.958;-7.470;2023-05-21T01:45:39;101352.53;;;15.21;100.00
64253;BME280;50592;52.958;-7.470;2023-05-21T01:48:10;101351.16;;;15.17;100.00
64253;BME280;50592;52.958;-7.470;2023-05-21T01:50:43;101354.13;;;15.13;100.00
64253;BME280;50592;52.958;-7.470;2023-05-21T01:53:14;101352.28;;;15.14;100.00
64253;BME280;50592;52.958;-7.470;2023-05-21T01:55:44;101352.28;;;15.14;100.00
64253;BME280;50592;52.958;-7.470;2023-05-21T01:58:14;101352.16;;;15.16;100.00
64253;BME280;50592;52.958;-7.470;2023-05-21T02:00:41;101348.47;;;15.17;100.00
64253;BME280;50592;52.958;-7.470;2023-05-21T02:03:13;101340.88;;;15.22;100.00
64253;BME280;50592;52.958;-7.470;2023-05-21T02:05:43;101348.72;;;15.23;100.00
64253;BME280;50592;52.958;-7.470;2023-05-21T02:08:13;101344.38;;;15.22;100.00
64253;BME280;50592;52.958;-7.470;2023-05-21T02:10:41;101343.94;;;15.27;100.00
64253;BME280;50592;52.958;-7.470;2023-05-21T02:13:09;101337.38;;;15.21;100.00
64253;BME280;50592;52.958;-7.470;2023-05-21T02:15:37;101331.88;;;15.23;100.00
64253;BME280;50592;52.958;-7.470;2023-05-21T02:18:05;101331.72;;;15.24;100.00
64253;BME280;50592;52.958;-7.470;2023-05-21T02:20:33;101330.31;;;15.30;100.00
64253;BME280;50592;52.958;-7.470;2023-05-21T02:23:00;101328.59;;;15.29;100.00
64253;BME280;50592;52.958;-7.470;2023-05-21T02:25:28;101324.81;;;15.32;100.00
64253;BME280;50592;52.958;-7.470;2023-05-21T02:27:55;101326.63;;;15.31;100.00
64253;BME280;50592;52.958;-7.470;2023-05-21T02:30:25;101329.00;;;15.34;100.00
64253;BME280;50592;52.958;-7.470;2023-05-21T02:32:55;101334.47;;;15.33;100.00
64253;BME280;50592;52.958;-7.470;2023-05-21T02:35:26;101331.97;;;15.31;100.00
64253;BME280;50592;52.958;-7.470;2023-05-21T02:37:56;101322.16;;;15.32;100.00
64253;BME280;50592;52.958;-7.470;2023-05-21T02:40:24;101320.78;;;15.28;100.00
64253;BME280;50592;52.958;-7.470;2023-05-21T02:42:53;101327.09;;;15.27;100.00
64253;BME280;50592;52.958;-7.470;2023-05-21T02:45:20;101327.41;;;15.23;100.00
64253;BME280;50592;52.958;-7.470;2023-05-21T02:47:49;101327.09;;;15.27;100.00
64253;BME280;50592;52.958;-7.470;2023-05-21T02:50:20;101323.59;;;15.26;100.00
64253;BME280;50592;52.958;-7.470;2023-05-21T02:52:57;101319.56;;;15.22;100.00
64253;BME280;50592;52.958;-7.470;2023-05-21T02:55:30;101320.41;;;15.22;100.00
64253;BME280;50592;52.958;-7.470;2023-05-21T02:58:02;101318.72;;;15.21;100.00
64253;BME280;50592;52.958;-7.470;2023-05-21T03:00:28;101326.88;;;15.20;100.00
64253;BME280;50592;52.958;-7.470;2023-05-21T03:02:57;101318.56;;;15.23;100.00
64253;BME280;50592;52.958;-7.470;2023-05-21T03:05:24;101312.75;;;15.19;100.00
64253;BME280;50592;52.958;-7.470;2023-05-21T03:07:53;101321.53;;;15.20;100.00
64253;BME280;50592;52.958;-7.470;2023-05-21T03:10:19;101320.19;;;15.16;100.00
64253;BME280;50592;52.958;-7.470;2023-05-21T03:12:49;101320.03;;;15.17;100.00
64253;BME280;50592;52.958;-7.470;2023-05-21T03:15:21;101321.16;;;15.15;100.00
64253;BME280;50592;52.958;-7.470;2023-05-21T03:17:51;101314.31;;;15.12;100.00
64253;BME280;50592;52.958;-7.470;2023-05-21T03:20:19;101319.81;;;15.10;100.00
64253;BME280;50592;52.958;-7.470;2023-05-21T03:22:49;101315.16;;;15.12;100.00
64253;BME280;50592;52.958;-7.470;2023-05-21T03:25:17;101321.25;;;15.05;100.00
64253;BME280;50592;52.958;-7.470;2023-05-21T03:27:46;101321.94;;;15.07;100.00
64253;BME280;50592;52.958;-7.470;2023-05-21T03:30:40;101320.56;;;15.03;100.00
64253;BME280;50592;52.958;-7.470;2023-05-21T03:33:31;101317.59;;;15.06;100.00
64253;BME280;50592;52.958;-7.470;2023-05-21T03:36:01;101317.06;;;15.02;100.00
64253;BME280;50592;52.958;-7.470;2023-05-21T03:38:32;101323.06;;;15.04;100.00
64253;BME280;50592;52.958;-7.470;2023-05-21T03:41:00;101316.25;;;15.02;100.00
64253;BME280;50592;52.958;-7.470;2023-05-21T03:43:28;101318.50;;;14.96;100.00
64253;BME280;50592;52.958;-7.470;2023-05-21T03:45:56;101318.50;;;14.96;100.00
64253;BME280;50592;52.958;-7.470;2023-05-21T03:48:53;101323.28;;;14.93;100.00
64253;BME280;50592;52.958;-7.470;2023-05-21T03:51:26;101323.00;;;14.96;100.00
64253;BME280;50592;52.958;-7.470;2023-05-21T03:53:53;101321.34;;;14.95;100.00
64253;BME280;50592;52.958;-7.470;2023-05-21T03:56:23;101327.19;;;14.98;100.00
64253;BME280;50592;52.958;-7.470;2023-05-21T03:58:53;101326.50;;;14.96;100.00
64253;BME280;50592;52.958;-7.470;2023-05-21T04:01:22;101325.56;;;14.87;100.00
64253;BME280;50592;52.958;-7.470;2023-05-21T04:03:52;101320.78;;;14.91;100.00
64253;BME280;50592;52.958;-7.470;2023-05-21T04:06:21;101325.16;;;14.92;100.00
64253;BME280;50592;52.958;-7.470;2023-05-21T04:08:51;101322.84;;;14.97;100.00
64253;BME280;50592;52.958;-7.470;2023-05-21T04:11:20;101329.16;;;14.96;100.00
64253;BME280;50592;52.958;-7.470;2023-05-21T04:13:49;101319.22;;;14.98;100.00
64253;BME280;50592;52.958;-7.470;2023-05-21T04:16:15;101320.19;;;14.97;100.00
64253;BME280;50592;52.958;-7.470;2023-05-21T04:18:45;101315.25;;;15.03;100.00
64253;BME280;50592;52.958;-7.470;2023-05-21T04:21:14;101312.03;;;14.99;100.00
64253;BME280;50592;52.958;-7.470;2023-05-21T04:23:43;101311.72;;;15.02;100.00
64253;BME280;50592;52.958;-7.470;2023-05-21T04:26:19;101320.03;;;14.99;100.00
64253;BME280;50592;52.958;-7.470;2023-05-21T04:28:50;101313.59;;;15.02;100.00
64253;BME280;50592;52.958;-7.470;2023-05-21T04:31:21;101315.25;;;15.03;100.00
64253;BME280;50592;52.958;-7.470;2023-05-21T04:33:51;101309.91;;;15.03;100.00
64253;BME280;50592;52.958;-7.470;2023-05-21T04:36:21;101313.44;;;15.03;100.00
64253;BME280;50592;52.958;-7.470;2023-05-21T04:38:51;101314.41;;;15.02;100.00
64253;BME280;50592;52.958;-7.470;2023-05-21T04:41:22;101313.28;;;15.05;100.00
64253;BME280;50592;52.958;-7.470;2023-05-21T04:43:49;101307.94;;;15.05;100.00
64253;BME280;50592;52.958;-7.470;2023-05-21T04:46:24;101306.09;;;15.05;100.00
64253;BME280;50592;52.958;-7.470;2023-05-21T04:48:54;101302.47;;;15.06;100.00
64253;BME280;50592;52.958;-7.470;2023-05-21T04:51:25;101303.97;;;15.09;100.00
64253;BME280;50592;52.958;-7.470;2023-05-21T04:53:52;101299.97;;;15.05;100.00
64253;BME280;50592;52.958;-7.470;2023-05-21T04:56:22;101303.13;;;15.08;100.00
64253;BME280;50592;52.958;-7.470;2023-05-21T04:58:54;101294.19;;;15.09;100.00
64253;BME280;50592;52.958;-7.470;2023-05-21T05:01:26;101301.16;;;15.10;100.00
64253;BME280;50592;52.958;-7.470;2023-05-21T05:03:56;101300.31;;;15.10;100.00
64253;BME280;50592;52.958;-7.470;2023-05-21T05:06:25;101302.47;;;15.06;100.00
64253;BME280;50592;52.958;-7.470;2023-05-21T05:08:54;101306.94;;;15.06;100.00
64253;BME280;50592;52.958;-7.470;2023-05-21T05:11:22;101307.25;;;15.03;100.00
64253;BME280;50592;52.958;-7.470;2023-05-21T05:13:51;101301.78;;;15.04;100.00
64253;BME280;50592;52.958;-7.470;2023-05-21T05:16:19;101305.44;;;15.03;100.00
64253;BME280;50592;52.958;-7.470;2023-05-21T05:18:51;101303.59;;;15.04;100.00
64253;BME280;50592;52.958;-7.470;2023-05-21T05:21:21;101300.13;;;15.03;100.00
64253;BME280;50592;52.958;-7.470;2023-05-21T05:23:48;101303.59;;;15.04;100.00
64253;BME280;50592;52.958;-7.470;2023-05-21T05:26:20;101308.91;;;15.04;100.00
64253;BME280;50592;52.958;-7.470;2023-05-21T05:28:47;101309.91;;;15.03;100.00
64253;BME280;50592;52.958;-7.470;2023-05-21T05:31:17;101309.78;;;15.04;100.00
64253;BME280;50592;52.958;-7.470;2023-05-21T05:33:47;101308.78;;;15.05;100.00
64253;BME280;50592;52.958;-7.470;2023-05-21T05:36:15;101318.28;;;15.08;100.00
64253;BME280;50592;52.958;-7.470;2023-05-21T05:38:41;101311.44;;;15.05;100.00
64253;BME280;50592;52.958;-7.470;2023-05-21T05:41:12;101313.78;;;15.08;100.00
64253;BME280;50592;52.958;-7.470;2023-05-21T05:43:38;101310.47;;;15.06;100.00
64253;BME280;50592;52.958;-7.470;2023-05-21T05:46:08;101311.44;;;15.05;100.00
64253;BME280;50592;52.958;-7.470;2023-05-21T05:48:34;101312.19;;;14.97;100.00
64253;BME280;50592;52.958;-7.470;2023-05-21T05:51:03;101313.03;;;14.98;100.00
64253;BME280;50592;52.958;-7.470;2023-05-21T05:53:30;101312.19;;;14.97;100.00
64253;BME280;50592;52.958;-7.470;2023-05-21T05:56:00;101300.03;;;14.95;100.00
64253;BME280;50592;52.958;-7.470;2023-05-21T05:58:31;101313.34;;;14.95;100.00
64253;BME280;50592;52.958;-7.470;2023-05-21T06:01:11;101314.34;;;14.94;100.00
64253;BME280;50592;52.958;-7.470;2023-05-21T06:03:39;101321.47;;;14.93;100.00
64253;BME280;50592;52.958;-7.470;2023-05-21T06:06:16;101319.97;;;14.91;100.00
64253;BME280;50592;52.958;-7.470;2023-05-21T06:08:44;101317.97;;;14.93;100.00
64253;BME280;50592;52.958;-7.470;2023-05-21T06:11:11;101318.13;;;14.91;100.00
64253;BME280;50592;52.958;-7.470;2023-05-21T06:13:44;101314.50;;;14.92;100.00
64253;BME280;50592;52.958;-7.470;2023-05-21T06:16:11;101328.94;;;14.90;100.00
64253;BME280;50592;52.958;-7.470;2023-05-21T06:18:41;101321.09;;;14.88;100.00
64253;BME280;50592;52.958;-7.470;2023-05-21T06:21:07;101320.53;;;14.84;100.00
64253;BME280;50592;52.958;-7.470;2023-05-21T06:23:37;101331.19;;;14.84;100.00
64253;BME280;50592;52.958;-7.470;2023-05-21T06:26:08;101318.19;;;14.81;100.00
64253;BME280;50592;52.958;-7.470;2023-05-21T06:28:38;101325.63;;;14.78;100.00
64253;BME280;50592;52.958;-7.470;2023-05-21T06:31:06;101327.50;;;14.67;100.00
64253;BME280;50592;52.958;-7.470;2023-05-21T06:33:38;101323.72;;;14.70;100.00
64253;BME280;50592;52.958;-7.470;2023-05-21T06:36:08;101337.53;;;14.73;100.00
64253;BME280;50592;52.958;-7.470;2023-05-21T06:38:37;101333.50;;;14.69;100.00
64253;BME280;50592;52.958;-7.470;2023-05-21T06:41:05;101330.00;;;14.69;100.00
64253;BME280;50592;52.958;-7.470;2023-05-21T06:43:45;101328.66;;;14.64;100.00
64253;BME280;50592;52.958;-7.470;2023-05-21T06:46:50;101333.06;;;14.74;100.00
64253;BME280;50592;52.958;-7.470;2023-05-21T06:49:18;101333.91;;;14.74;100.00
64253;BME280;50592;52.958;-7.470;2023-05-21T06:51:47;101340.47;;;14.80;100.00
64253;BME280;50592;52.958;-7.470;2023-05-21T06:54:13;101330.09;;;14.77;100.00
64253;BME280;50592;52.958;-7.470;2023-05-21T06:56:43;101333.84;;;14.84;100.00
64253;BME280;50592;52.958;-7.470;2023-05-21T06:59:10;101333.72;;;14.86;100.00
64253;BME280;50592;52.958;-7.470;2023-05-21T07:01:39;101330.91;;;14.87;100.00
64253;BME280;50592;52.958;-7.470;2023-05-21T07:04:08;101331.88;;;14.86;100.00
64253;BME280;50592;52.958;-7.470;2023-05-21T07:06:38;101329.69;;;14.82;100.00
64253;BME280;50592;52.958;-7.470;2023-05-21T07:09:09;101323.78;;;14.78;100.00
64253;BME280;50592;52.958;-7.470;2023-05-21T07:11:39;101339.53;;;14.71;100.00
64253;BME280;50592;52.958;-7.470;2023-05-21T07:14:10;101335.47;;;14.67;100.00
64253;BME280;50592;52.958;-7.470;2023-05-21T07:16:40;101330.75;;;14.61;100.00
64253;BME280;50592;52.958;-7.470;2023-05-21T07:19:09;101340.47;;;14.52;100.00
64253;BME280;50592;52.958;-7.470;2023-05-21T07:21:40;101341.59;;;14.49;100.00
64253;BME280;50592;52.958;-7.470;2023-05-21T07:24:10;101345.41;;;14.47;100.00
64253;BME280;50592;52.958;-7.470;2023-05-21T07:26:41;101347.66;;;14.42;100.00
64253;BME280;50592;52.958;-7.470;2023-05-21T07:29:09;101345.44;;;14.37;100.00
64253;BME280;50592;52.958;-7.470;2023-05-21T07:31:38;101351.31;;;14.41;100.00
64253;BME280;50592;52.958;-7.470;2023-05-21T07:34:06;101350.25;;;14.33;100.00
64253;BME280;50592;52.958;-7.470;2023-05-21T07:36:35;101347.66;;;14.42;100.00
64253;BME280;50592;52.958;-7.470;2023-05-21T07:39:05;101347.00;;;14.39;100.00
64253;BME280;50592;52.958;-7.470;2023-05-21T07:41:35;101352.91;;;14.33;100.00
64253;BME280;50592;52.958;-7.470;2023-05-21T07:44:08;101349.53;;;14.31;100.00
64253;BME280;50592;52.958;-7.470;2023-05-21T07:46:39;101350.34;;;14.32;100.00
64253;BME280;50592;52.958;-7.470;2023-05-21T07:49:09;101352.47;;;14.38;100.00
64253;BME280;50592;52.958;-7.470;2023-05-21T07:51:45;101352.47;;;14.38;100.00
64253;BME280;50592;52.958;-7.470;2023-05-21T07:54:16;101360.66;;;14.45;100.00
64253;BME280;50592;52.958;-7.470;2023-05-21T07:56:47;101352.38;;;14.48;100.00
64253;BME280;50592;52.958;-7.470;2023-05-21T07:59:31;101362.97;;;14.58;100.00
64253;BME280;50592;52.958;-7.470;2023-05-21T08:02:00;101357.63;;;14.68;100.00
64253;BME280;50592;52.958;-7.470;2023-05-21T08:04:28;101365.75;;;14.66;100.00
64253;BME280;50592;52.958;-7.470;2023-05-21T08:06:55;101359.06;;;14.62;100.00
64253;BME280;50592;52.958;-7.470;2023-05-21T08:09:23;101365.66;;;14.58;100.00
64253;BME280;50592;52.958;-7.470;2023-05-21T08:11:51;101370.13;;;14.57;100.00
64253;BME280;50592;52.958;-7.470;2023-05-21T08:14:19;101369.03;;;14.50;100.00
64253;BME280;50592;52.958;-7.470;2023-05-21T08:16:47;101372.25;;;14.54;100.00
64253;BME280;50592;52.958;-7.470;2023-05-21T08:19:15;101369.59;;;14.54;100.00
64253;BME280;50592;52.958;-7.470;2023-05-21T08:21:42;101368.84;;;14.61;100.00
64253;BME280;50592;52.958;-7.470;2023-05-21T08:24:10;101367.25;;;14.69;100.00
64253;BME280;50592;52.958;-7.470;2023-05-21T08:26:40;101367.50;;;14.75;100.00
64253;BME280;50592;52.958;-7.470;2023-05-21T08:29:06;101367.22;;;14.79;100.00
64253;BME280;50592;52.958;-7.470;2023-05-21T08:31:36;101372.25;;;14.82;100.00
64253;BME280;50592;52.958;-7.470;2023-05-21T08:34:08;101372.66;;;14.87;100.00
64253;BME280;50592;52.958;-7.470;2023-05-21T08:36:50;101370.00;;;14.87;100.00
64253;BME280;50592;52.958;-7.470;2023-05-21T08:39:39;101370.00;;;14.87;100.00
64253;BME280;50592;52.958;-7.470;2023-05-21T08:42:29;101371.66;;;14.88;100.00
64253;BME280;50592;52.958;-7.470;2023-05-21T08:45:04;101366.38;;;14.78;100.00
64253;BME280;50592;52.958;-7.470;2023-05-21T08:47:35;101365.69;;;14.76;100.00
64253;BME280;50592;52.958;-7.470;2023-05-21T08:50:09;101372.41;;;14.80;100.00
64253;BME280;50592;52.958;-7.470;2023-05-21T08:52:36;101374.50;;;14.76;100.00
64253;BME280;50592;52.958;-7.470;2023-05-21T08:55:06;101370.03;;;14.77;100.00
64253;BME280;50592;52.958;-7.470;2023-05-21T08:57:35;101374.94;;;14.72;100.00
64253;BME280;50592;52.958;-7.470;2023-05-21T09:00:04;101373.84;;;14.74;100.00
64253;BME280;50592;52.958;-7.470;2023-05-21T09:02:33;101373.84;;;14.74;100.00
64253;BME280;50592;52.958;-7.470;2023-05-21T09:05:07;101379.41;;;14.81;100.00
64253;BME280;50592;52.958;-7.470;2023-05-21T09:10:38;101371.56;;;14.80;100.00
64253;BME280;50592;52.958;-7.470;2023-05-21T09:13:05;101377.44;;;14.83;100.00
64253;BME280;50592;52.958;-7.470;2023-05-21T09:15:35;101374.72;;;14.93;100.00
64253;BME280;50592;52.958;-7.470;2023-05-21T09:18:02;101379.28;;;15.01;100.00
64253;BME280;50592;52.958;-7.470;2023-05-21T09:20:50;101379.84;;;15.05;100.00
64253;BME280;50592;52.958;-7.470;2023-05-21T09:23:19;101379.00;;;15.04;100.00
64253;BME280;50592;52.958;-7.470;2023-05-21T09:25:48;101369.09;;;15.15;100.00
64253;BME280;50592;52.958;-7.470;2023-05-21T09:28:24;101368.44;;;15.12;100.00
64253;BME280;50592;52.958;-7.470;2023-05-21T09:30:53;101367.50;;;15.22;100.00
64253;BME280;50592;52.958;-7.470;2023-05-21T09:33:25;101373.53;;;15.24;100.00
64253;BME280;50592;52.958;-7.470;2023-05-21T09:35:52;101373.22;;;15.27;100.00
64253;BME280;50592;52.958;-7.470;2023-05-21T09:38:23;101373.59;;;15.32;100.00
64253;BME280;50592;52.958;-7.470;2023-05-21T09:40:54;101367.63;;;15.38;100.00
64253;BME280;50592;52.958;-7.470;2023-05-21T09:43:24;101367.25;;;15.52;100.00
64253;BME280;50592;52.958;-7.470;2023-05-21T09:45:56;101366.94;;;15.55;100.00
64253;BME280;50592;52.958;-7.470;2023-05-21T09:48:38;101362.53;;;15.63;100.00
64253;BME280;50592;52.958;-7.470;2023-05-21T09:53:49;101357.75;;;15.75;100.00
64253;BME280;50592;52.958;-7.470;2023-05-21T09:56:24;101356.63;;;15.78;100.00
64253;BME280;50592;52.958;-7.470;2023-05-21T09:58:55;101361.81;;;15.80;100.00
64253;BME280;50592;52.958;-7.470;2023-05-21T10:01:26;101357.75;;;15.75;100.00
64253;BME280;50592;52.958;-7.470;2023-05-21T10:03:58;101360.66;;;15.82;100.00
64253;BME280;50592;52.958;-7.470;2023-05-21T10:06:30;101356.72;;;15.95;100.00
64253;BME280;50592;52.958;-7.470;2023-05-21T10:09:02;101355.69;;;16.14;100.00
64253;BME280;50592;52.958;-7.470;2023-05-21T10:11:32;101358.25;;;16.24;100.00
64253;BME280;50592;52.958;-7.470;2023-05-21T10:14:10;101355.78;;;16.31;100.00
64253;BME280;50592;52.958;-7.470;2023-05-21T10:16:43;101358.25;;;16.24;100.00
64253;BME280;50592;52.958;-7.470;2023-05-21T10:19:15;101360.22;;;16.22;100.00
64253;BME280;50592;52.958;-7.470;2023-05-21T10:21:45;101358.09;;;16.26;100.00
64253;BME280;50592;52.958;-7.470;2023-05-21T10:24:12;101355.06;;;16.20;100.00
64253;BME280;50592;52.958;-7.470;2023-05-21T10:26:44;101349.09;;;16.27;100.00
64253;BME280;50592;52.958;-7.470;2023-05-21T10:29:15;101358.63;;;16.29;100.00
64253;BME280;50592;52.958;-7.470;2023-05-21T10:31:46;101361.78;;;16.33;100.00
64253;BME280;50592;52.958;-7.470;2023-05-21T10:34:18;101359.16;;;16.41;100.00
64253;BME280;50592;52.958;-7.470;2023-05-21T10:36:45;101350.31;;;16.41;100.00
64253;BME280;50592;52.958;-7.470;2023-05-21T10:39:17;101352.81;;;16.42;100.00
64253;BME280;50592;52.958;-7.470;2023-05-21T10:41:55;101346.81;;;16.48;100.00
64253;BME280;50592;52.958;-7.470;2023-05-21T10:44:42;101344.16;;;16.48;100.00
64253;BME280;50592;52.958;-7.470;2023-05-21T10:55:41;101346.88;;;16.57;100.00
64253;BME280;50592;52.958;-7.470;2023-05-21T11:00:43;101340.72;;;16.65;100.00
64253;BME280;50592;52.958;-7.470;2023-05-21T11:03:12;101342.72;;;16.71;100.00
64253;BME280;50592;52.958;-7.470;2023-05-21T11:05:54;101341.09;;;16.78;100.00
64253;BME280;50592;52.958;-7.470;2023-05-21T11:08:26;101343.59;;;16.80;100.00
64253;BME280;50592;52.958;-7.470;2023-05-21T11:10:59;101338.91;;;16.73;100.00
64253;BME280;50592;52.958;-7.470;2023-05-21T11:13:44;101331.88;;;16.72;100.00
64253;BME280;50592;52.958;-7.470;2023-05-21T11:16:17;101334.41;;;16.66;100.00
64253;BME280;50592;52.958;-7.470;2023-05-21T11:21:17;101332.53;;;16.66;100.00
64253;BME280;50592;52.958;-7.470;2023-05-21T11:26:21;101322.41;;;16.78;100.00
64253;BME280;50592;52.958;-7.470;2023-05-21T11:29:10;101320.06;;;16.75;100.00
64253;BME280;50592;52.958;-7.470;2023-05-21T11:31:47;101312.88;;;16.76;100.00
64253;BME280;50592;52.958;-7.470;2023-05-21T11:34:22;101317.03;;;16.70;100.00
64253;BME280;50592;52.958;-7.470;2023-05-21T11:40:15;101308.53;;;16.66;100.00
64253;BME280;50592;52.958;-7.470;2023-05-21T11:42:51;101312.88;;;16.76;100.00
64253;BME280;50592;52.958;-7.470;2023-05-21T11:45:25;101314.88;;;16.82;100.00
64253;BME280;50592;52.958;-7.470;2023-05-21T11:47:56;101310.22;;;16.84;100.00
64253;BME280;50592;52.958;-7.470;2023-05-21T11:50:27;101305.41;;;16.96;100.00
64253;BME280;50592;52.958;-7.470;2023-05-21T11:52:58;101308.75;;;17.06;100.00
64253;BME280;50592;52.958;-7.470;2023-05-21T11:55:25;101303.94;;;17.18;100.00
64253;BME280;50592;52.958;-7.470;2023-05-21T11:57:57;101300.41;;;17.34;100.00
64253;BME280;50592;52.958;-7.470;2023-05-21T12:00:27;101302.25;;;17.51;100.00
64253;BME280;50592;52.958;-7.470;2023-05-21T12:02:57;101296.25;;;17.48;100.00
64253;BME280;50592;52.958;-7.470;2023-05-21T12:05:27;101292.50;;;17.66;100.00
64253;BME280;50592;52.958;-7.470;2023-05-21T12:07:54;101292.81;;;17.80;100.00
64253;BME280;50592;52.958;-7.470;2023-05-21T12:10:22;101290.47;;;17.85;100.00
64253;BME280;50592;52.958;-7.470;2023-05-21T12:12:49;101290.66;;;17.83;100.00
64253;BME280;50592;52.958;-7.470;2023-05-21T12:15:18;101281.28;;;17.88;100.00
64253;BME280;50592;52.958;-7.470;2023-05-21T12:17:48;101279.72;;;18.02;100.00
64253;BME280;50592;52.958;-7.470;2023-05-21T12:20:20;101278.66;;;18.19;100.00
64253;BME280;50592;52.958;-7.470;2023-05-21T12:22:51;101283.06;;;18.12;100.00
64253;BME280;50592;52.958;-7.470;2023-05-21T12:25:19;101284.09;;;17.94;100.00
64253;BME280;50592;52.958;-7.470;2023-05-21T12:27:49;101284.28;;;17.84;100.00
64253;BME280;50592;52.958;-7.470;2023-05-21T12:30:24;101286.47;;;17.81;100.00
64253;BME280;50592;52.958;-7.470;2023-05-21T12:32:56;101283.44;;;17.84;100.00
64253;BME280;50592;52.958;-7.470;2023-05-21T12:35:23;101285.31;;;17.83;100.00
64253;BME280;50592;52.958;-7.470;2023-05-21T12:37:53;101280.06;;;17.90;100.00
64253;BME280;50592;52.958;-7.470;2023-05-21T12:40:33;101292.63;;;17.98;100.00
64253;BME280;50592;52.958;-7.470;2023-05-21T12:43:04;101283.59;;;17.91;100.00
64253;BME280;50592;52.958;-7.470;2023-05-21T12:45:34;101288.09;;;17.90;100.00
64253;BME280;50592;52.958;-7.470;2023-05-21T12:48:06;101289.09;;;17.97;100.00
64253;BME280;50592;52.958;-7.470;2023-05-21T12:50:39;101284.72;;;17.96;100.00
64253;BME280;50592;52.958;-7.470;2023-05-21T12:53:08;101281.78;;;17.91;100.00
64253;BME280;50592;52.958;-7.470;2023-05-21T12:55:38;101286.78;;;17.94;100.00
64253;BME280;50592;52.958;-7.470;2023-05-21T12:58:05;101283.78;;;17.89;100.00
64253;BME280;50592;52.958;-7.470;2023-05-21T13:00:35;101291.00;;;17.80;100.00
64253;BME280;50592;52.958;-7.470;2023-05-21T13:03:05;101289.34;;;17.71;100.00
64253;BME280;50592;52.958;-7.470;2023-05-21T13:05:39;101279.66;;;17.70;100.00
64253;BME280;50592;52.958;-7.470;2023-05-21T13:08:06;101283.84;;;17.72;100.00
64253;BME280;50592;52.958;-7.470;2023-05-21T13:10:37;101280.66;;;17.77;100.00
64253;BME280;50592;52.958;-7.470;2023-05-21T13:13:07;101280.78;;;17.84;100.00
64253;BME280;50592;52.958;-7.470;2023-05-21T13:15:37;101281.25;;;17.96;100.00
64253;BME280;50592;52.958;-7.470;2023-05-21T13:18:07;101273.72;;;18.00;100.00